Kwinana, Australia
Current Conditions -  °F | °C
As of 4:00 PM on Thursday 18 Dec 2014 (Local Time) from YPJT Reporting Station
Clear Clear  
Wind Chill: 81°   Ceiling: Unl
Heat Index: 81°   Visibility: 6mi
Dew Point: 52°   Wind: 15mph
Humidity: 37%   Direction: 230°SW
Pressure: 29.94"   Gusts: NA
Location:  32.25°S, 115.81°E
Report Text: YPJT 180800Z AUTO 23013KT 9999 // NCD 27/11 Q1014
Loading
Personal Weather Stations






























Interactive Weather Map New forecast layout! Learn more

10-Day Weather Forecast

Advertisements
Track Severe Weather on mobile